sensor_id;sensor_type;location;lat;lon;timestamp;P1;durP1;ratioP1;P2;durP2;ratioP2
50683;SDS011;36654;45.042;38.994;2023-02-15T00:00:02;27.27;;;11.95;;
50683;SDS011;36654;45.042;38.994;2023-02-15T00:02:31;32.25;;;13.00;;
50683;SDS011;36654;45.042;38.994;2023-02-15T00:04:57;28.60;;;12.27;;
50683;SDS011;36654;45.042;38.994;2023-02-15T00:07:22;32.95;;;13.30;;
50683;SDS011;36654;45.042;38.994;2023-02-15T00:09:48;36.38;;;13.45;;
50683;SDS011;36654;45.042;38.994;2023-02-15T00:12:14;26.92;;;11.88;;
50683;SDS011;36654;45.042;38.994;2023-02-15T00:14:40;29.00;;;12.75;;
50683;SDS011;36654;45.042;38.994;2023-02-15T00:17:07;28.77;;;11.00;;
50683;SDS011;36654;45.042;38.994;2023-02-15T00:19:33;25.90;;;11.40;;
50683;SDS011;36654;45.042;38.994;2023-02-15T00:21:58;30.63;;;12.57;;
50683;SDS011;36654;45.042;38.994;2023-02-15T00:24:24;25.30;;;12.52;;
50683;SDS011;36654;45.042;38.994;2023-02-15T00:26:50;33.40;;;12.38;;
50683;SDS011;36654;45.042;38.994;2023-02-15T00:29:16;24.58;;;11.88;;
50683;SDS011;36654;45.042;38.994;2023-02-15T00:31:43;27.83;;;11.90;;
50683;SDS011;36654;45.042;38.994;2023-02-15T00:36:47;30.35;;;13.80;;
50683;SDS011;36654;45.042;38.994;2023-02-15T00:39:14;30.63;;;12.43;;
50683;SDS011;36654;45.042;38.994;2023-02-15T00:41:41;31.08;;;12.93;;
50683;SDS011;36654;45.042;38.994;2023-02-15T00:44:07;28.17;;;13.35;;
50683;SDS011;36654;45.042;38.994;2023-02-15T00:46:33;30.33;;;13.27;;
50683;SDS011;36654;45.042;38.994;2023-02-15T00:48:59;29.73;;;13.50;;
50683;SDS011;36654;45.042;38.994;2023-02-15T00:51:25;30.40;;;12.32;;
50683;SDS011;36654;45.042;38.994;2023-02-15T00:53:51;30.73;;;13.43;;
50683;SDS011;36654;45.042;38.994;2023-02-15T00:56:16;33.38;;;13.13;;
50683;SDS011;36654;45.042;38.994;2023-02-15T00:58:42;32.33;;;13.95;;
50683;SDS011;36654;45.042;38.994;2023-02-15T01:01:09;31.88;;;14.15;;
50683;SDS011;36654;45.042;38.994;2023-02-15T01:03:37;30.20;;;13.93;;
50683;SDS011;36654;45.042;38.994;2023-02-15T01:06:03;30.10;;;13.07;;
50683;SDS011;36654;45.042;38.994;2023-02-15T01:08:30;34.22;;;14.23;;
50683;SDS011;36654;45.042;38.994;2023-02-15T01:10:56;27.45;;;12.25;;
50683;SDS011;36654;45.042;38.994;2023-02-15T01:13:21;30.90;;;12.95;;
50683;SDS011;36654;45.042;38.994;2023-02-15T01:15:52;31.95;;;14.23;;
50683;SDS011;36654;45.042;38.994;2023-02-15T01:18:19;30.00;;;12.43;;
50683;SDS011;36654;45.042;38.994;2023-02-15T01:20:45;28.48;;;13.02;;
50683;SDS011;36654;45.042;38.994;2023-02-15T01:23:12;28.95;;;12.10;;
50683;SDS011;36654;45.042;38.994;2023-02-15T01:25:38;26.73;;;12.73;;
50683;SDS011;36654;45.042;38.994;2023-02-15T01:28:03;25.88;;;11.68;;
50683;SDS011;36654;45.042;38.994;2023-02-15T01:30:29;25.23;;;11.95;;
50683;SDS011;36654;45.042;38.994;2023-02-15T01:32:55;26.73;;;11.70;;
50683;SDS011;36654;45.042;38.994;2023-02-15T01:35:21;29.52;;;11.95;;
50683;SDS011;36654;45.042;38.994;2023-02-15T01:37:46;25.25;;;12.98;;
50683;SDS011;36654;45.042;38.994;2023-02-15T01:40:13;33.40;;;12.27;;
50683;SDS011;36654;45.042;38.994;2023-02-15T01:42:42;28.23;;;12.70;;
50683;SDS011;36654;45.042;38.994;2023-02-15T01:45:21;28.08;;;12.52;;
50683;SDS011;36654;45.042;38.994;2023-02-15T01:47:50;31.52;;;12.23;;
50683;SDS011;36654;45.042;38.994;2023-02-15T01:50:25;24.08;;;12.18;;
50683;SDS011;36654;45.042;38.994;2023-02-15T01:52:59;28.30;;;12.82;;
50683;SDS011;36654;45.042;38.994;2023-02-15T01:55:39;23.27;;;10.93;;
50683;SDS011;36654;45.042;38.994;2023-02-15T01:58:11;29.88;;;12.85;;
50683;SDS011;36654;45.042;38.994;2023-02-15T02:00:36;23.88;;;12.13;;
50683;SDS011;36654;45.042;38.994;2023-02-15T02:03:02;25.15;;;11.75;;
50683;SDS011;36654;45.042;38.994;2023-02-15T02:05:28;27.58;;;11.40;;
50683;SDS011;36654;45.042;38.994;2023-02-15T02:07:56;26.80;;;11.60;;
50683;SDS011;36654;45.042;38.994;2023-02-15T02:10:24;20.85;;;11.00;;
50683;SDS011;36654;45.042;38.994;2023-02-15T02:12:52;22.75;;;11.05;;
50683;SDS011;36654;45.042;38.994;2023-02-15T02:15:29;24.45;;;11.02;;
50683;SDS011;36654;45.042;38.994;2023-02-15T02:23:18;23.83;;;12.07;;
50683;SDS011;36654;45.042;38.994;2023-02-15T02:31:21;23.90;;;11.68;;
50683;SDS011;36654;45.042;38.994;2023-02-15T02:39:31;24.42;;;12.30;;
50683;SDS011;36654;45.042;38.994;2023-02-15T02:48:02;24.17;;;12.23;;
50683;SDS011;36654;45.042;38.994;2023-02-15T02:50:31;24.88;;;10.63;;
50683;SDS011;36654;45.042;38.994;2023-02-15T02:52:58;23.40;;;12.52;;
50683;SDS011;36654;45.042;38.994;2023-02-15T02:58:21;25.35;;;11.52;;
50683;SDS011;36654;45.042;38.994;2023-02-15T03:00:58;21.33;;;11.77;;
50683;SDS011;36654;45.042;38.994;2023-02-15T03:04:01;26.88;;;12.15;;
50683;SDS011;36654;45.042;38.994;2023-02-15T03:06:31;23.25;;;11.73;;
50683;SDS011;36654;45.042;38.994;2023-02-15T03:09:09;25.23;;;11.52;;
50683;SDS011;36654;45.042;38.994;2023-02-15T03:11:50;27.45;;;13.00;;
50683;SDS011;36654;45.042;38.994;2023-02-15T03:14:16;28.65;;;12.00;;
50683;SDS011;36654;45.042;38.994;2023-02-15T03:16:44;30.48;;;13.45;;
50683;SDS011;36654;45.042;38.994;2023-02-15T03:19:15;28.20;;;12.38;;
50683;SDS011;36654;45.042;38.994;2023-02-15T03:21:51;23.88;;;12.00;;
50683;SDS011;36654;45.042;38.994;2023-02-15T03:24:27;22.55;;;12.15;;
50683;SDS011;36654;45.042;38.994;2023-02-15T03:27:00;22.60;;;11.93;;
50683;SDS011;36654;45.042;38.994;2023-02-15T03:29:31;27.70;;;13.15;;
50683;SDS011;36654;45.042;38.994;2023-02-15T03:32:00;32.00;;;12.38;;
50683;SDS011;36654;45.042;38.994;2023-02-15T03:34:28;26.80;;;12.23;;
50683;SDS011;36654;45.042;38.994;2023-02-15T03:37:10;23.77;;;11.82;;
50683;SDS011;36654;45.042;38.994;2023-02-15T03:39:53;25.42;;;12.32;;
50683;SDS011;36654;45.042;38.994;2023-02-15T03:45:51;28.45;;;13.57;;
50683;SDS011;36654;45.042;38.994;2023-02-15T03:48:25;26.75;;;12.82;;
50683;SDS011;36654;45.042;38.994;2023-02-15T03:50:54;24.45;;;13.55;;
50683;SDS011;36654;45.042;38.994;2023-02-15T03:53:44;27.92;;;13.57;;
50683;SDS011;36654;45.042;38.994;2023-02-15T03:56:13;30.67;;;13.80;;
50683;SDS011;36654;45.042;38.994;2023-02-15T03:58:39;28.33;;;14.55;;
50683;SDS011;36654;45.042;38.994;2023-02-15T04:01:27;31.48;;;14.10;;
50683;SDS011;36654;45.042;38.994;2023-02-15T04:04:11;28.23;;;13.23;;
50683;SDS011;36654;45.042;38.994;2023-02-15T04:06:42;29.77;;;13.73;;
50683;SDS011;36654;45.042;38.994;2023-02-15T04:09:07;31.40;;;14.15;;
50683;SDS011;36654;45.042;38.994;2023-02-15T04:11:51;35.47;;;15.63;;
50683;SDS011;36654;45.042;38.994;2023-02-15T04:14:17;37.35;;;15.68;;
50683;SDS011;36654;45.042;38.994;2023-02-15T04:16:53;28.13;;;13.20;;
50683;SDS011;36654;45.042;38.994;2023-02-15T04:19:19;31.25;;;13.35;;
50683;SDS011;36654;45.042;38.994;2023-02-15T04:22:03;28.55;;;13.68;;
50683;SDS011;36654;45.042;38.994;2023-02-15T04:24:47;24.30;;;12.45;;
50683;SDS011;36654;45.042;38.994;2023-02-15T04:27:31;23.83;;;11.88;;
50683;SDS011;36654;45.042;38.994;2023-02-15T04:29:56;27.92;;;12.65;;
50683;SDS011;36654;45.042;38.994;2023-02-15T04:32:22;26.15;;;10.90;;
50683;SDS011;36654;45.042;38.994;2023-02-15T04:34:47;28.88;;;13.68;;
50683;SDS011;36654;45.042;38.994;2023-02-15T04:37:13;25.67;;;11.20;;
50683;SDS011;36654;45.042;38.994;2023-02-15T04:39:39;24.90;;;11.32;;
50683;SDS011;36654;45.042;38.994;2023-02-15T04:42:04;23.10;;;10.50;;
50683;SDS011;36654;45.042;38.994;2023-02-15T04:44:30;25.75;;;11.35;;
50683;SDS011;36654;45.042;38.994;2023-02-15T04:46:55;29.60;;;12.68;;
50683;SDS011;36654;45.042;38.994;2023-02-15T04:49:21;25.98;;;12.18;;
50683;SDS011;36654;45.042;38.994;2023-02-15T04:51:46;26.75;;;11.80;;
50683;SDS011;36654;45.042;38.994;2023-02-15T04:54:12;26.20;;;12.18;;
50683;SDS011;36654;45.042;38.994;2023-02-15T04:56:37;26.67;;;12.23;;
50683;SDS011;36654;45.042;38.994;2023-02-15T04:59:04;29.33;;;12.55;;
50683;SDS011;36654;45.042;38.994;2023-02-15T05:01:30;31.05;;;14.55;;
50683;SDS011;36654;45.042;38.994;2023-02-15T05:03:56;31.10;;;13.90;;
50683;SDS011;36654;45.042;38.994;2023-02-15T05:06:21;35.97;;;15.70;;
50683;SDS011;36654;45.042;38.994;2023-02-15T05:08:47;35.88;;;13.75;;
50683;SDS011;36654;45.042;38.994;2023-02-15T05:11:13;42.03;;;15.30;;
50683;SDS011;36654;45.042;38.994;2023-02-15T05:13:38;34.28;;;12.55;;
50683;SDS011;36654;45.042;38.994;2023-02-15T05:16:04;37.08;;;14.65;;
50683;SDS011;36654;45.042;38.994;2023-02-15T05:18:29;36.53;;;14.30;;
50683;SDS011;36654;45.042;38.994;2023-02-15T05:20:55;38.92;;;14.43;;
50683;SDS011;36654;45.042;38.994;2023-02-15T05:23:21;37.53;;;16.75;;
50683;SDS011;36654;45.042;38.994;2023-02-15T05:25:47;37.35;;;14.98;;
50683;SDS011;36654;45.042;38.994;2023-02-15T05:28:32;38.20;;;16.08;;
50683;SDS011;36654;45.042;38.994;2023-02-15T05:31:11;40.55;;;16.13;;
50683;SDS011;36654;45.042;38.994;2023-02-15T05:33:42;39.30;;;16.75;;
50683;SDS011;36654;45.042;38.994;2023-02-15T05:36:08;40.60;;;16.58;;
50683;SDS011;36654;45.042;38.994;2023-02-15T05:38:34;38.60;;;15.38;;
50683;SDS011;36654;45.042;38.994;2023-02-15T05:41:02;35.15;;;14.57;;
50683;SDS011;36654;45.042;38.994;2023-02-15T05:43:31;31.98;;;14.50;;
50683;SDS011;36654;45.042;38.994;2023-02-15T05:45:57;36.60;;;14.93;;
50683;SDS011;36654;45.042;38.994;2023-02-15T05:48:24;32.53;;;14.00;;
50683;SDS011;36654;45.042;38.994;2023-02-15T05:51:01;32.53;;;14.80;;
50683;SDS011;36654;45.042;38.994;2023-02-15T05:53:30;32.10;;;14.70;;
50683;SDS011;36654;45.042;38.994;2023-02-15T05:55:57;41.28;;;16.73;;
50683;SDS011;36654;45.042;38.994;2023-02-15T05:58:27;38.92;;;14.85;;
50683;SDS011;36654;45.042;38.994;2023-02-15T06:00:54;35.13;;;15.45;;
50683;SDS011;36654;45.042;38.994;2023-02-15T06:03:20;35.47;;;14.80;;
50683;SDS011;36654;45.042;38.994;2023-02-15T06:05:47;30.35;;;15.38;;
50683;SDS011;36654;45.042;38.994;2023-02-15T06:08:13;36.28;;;16.08;;
50683;SDS011;36654;45.042;38.994;2023-02-15T06:10:38;36.22;;;16.25;;
50683;SDS011;36654;45.042;38.994;2023-02-15T06:13:05;37.55;;;15.90;;
50683;SDS011;36654;45.042;38.994;2023-02-15T06:15:31;43.28;;;17.75;;
50683;SDS011;36654;45.042;38.994;2023-02-15T06:17:57;42.28;;;17.77;;
50683;SDS011;36654;45.042;38.994;2023-02-15T06:20:23;42.10;;;17.10;;
50683;SDS011;36654;45.042;38.994;2023-02-15T06:22:49;37.53;;;17.77;;
50683;SDS011;36654;45.042;38.994;2023-02-15T06:25:15;49.88;;;17.83;;
50683;SDS011;36654;45.042;38.994;2023-02-15T06:27:41;47.65;;;20.90;;
50683;SDS011;36654;45.042;38.994;2023-02-15T06:30:07;43.97;;;22.17;;
50683;SDS011;36654;45.042;38.994;2023-02-15T06:32:34;42.33;;;18.88;;
50683;SDS011;36654;45.042;38.994;2023-02-15T06:35:00;34.35;;;16.20;;
50683;SDS011;36654;45.042;38.994;2023-02-15T06:37:26;35.47;;;17.15;;
50683;SDS011;36654;45.042;38.994;2023-02-15T06:39:52;38.35;;;19.55;;
50683;SDS011;36654;45.042;38.994;2023-02-15T06:42:17;43.55;;;18.70;;
50683;SDS011;36654;45.042;38.994;2023-02-15T06:44:43;45.60;;;19.13;;
50683;SDS011;36654;45.042;38.994;2023-02-15T06:47:09;41.65;;;19.23;;
50683;SDS011;36654;45.042;38.994;2023-02-15T06:49:36;41.70;;;17.85;;
50683;SDS011;36654;45.042;38.994;2023-02-15T06:52:02;36.47;;;18.13;;
50683;SDS011;36654;45.042;38.994;2023-02-15T06:54:28;41.35;;;19.88;;
50683;SDS011;36654;45.042;38.994;2023-02-15T06:56:54;45.08;;;21.42;;
50683;SDS011;36654;45.042;38.994;2023-02-15T06:59:19;44.35;;;19.10;;
50683;SDS011;36654;45.042;38.994;2023-02-15T07:01:45;37.88;;;18.33;;
50683;SDS011;36654;45.042;38.994;2023-02-15T07:04:10;41.30;;;19.30;;
50683;SDS011;36654;45.042;38.994;2023-02-15T07:06:36;33.92;;;17.92;;
50683;SDS011;36654;45.042;38.994;2023-02-15T07:09:02;29.77;;;14.90;;
50683;SDS011;36654;45.042;38.994;2023-02-15T07:11:27;31.08;;;15.52;;
50683;SDS011;36654;45.042;38.994;2023-02-15T07:14:26;28.30;;;15.05;;
50683;SDS011;36654;45.042;38.994;2023-02-15T07:16:51;37.28;;;16.42;;
50683;SDS011;36654;45.042;38.994;2023-02-15T07:19:17;36.13;;;17.90;;
50683;SDS011;36654;45.042;38.994;2023-02-15T07:21:42;36.30;;;16.38;;
50683;SDS011;36654;45.042;38.994;2023-02-15T07:24:10;36.50;;;16.00;;
50683;SDS011;36654;45.042;38.994;2023-02-15T07:26:36;34.90;;;15.52;;
50683;SDS011;36654;45.042;38.994;2023-02-15T07:29:01;32.47;;;15.32;;
50683;SDS011;36654;45.042;38.994;2023-02-15T07:31:27;37.83;;;16.67;;
50683;SDS011;36654;45.042;38.994;2023-02-15T07:33:53;33.05;;;14.48;;
50683;SDS011;36654;45.042;38.994;2023-02-15T07:36:18;29.23;;;15.00;;
50683;SDS011;36654;45.042;38.994;2023-02-15T07:38:44;32.72;;;15.20;;
50683;SDS011;36654;45.042;38.994;2023-02-15T07:41:11;36.13;;;15.18;;
50683;SDS011;36654;45.042;38.994;2023-02-15T07:43:39;25.88;;;12.57;;
50683;SDS011;36654;45.042;38.994;2023-02-15T07:46:07;27.80;;;12.73;;
50683;SDS011;36654;45.042;38.994;2023-02-15T07:48:35;28.20;;;12.68;;
50683;SDS011;36654;45.042;38.994;2023-02-15T07:51:02;24.17;;;13.65;;
50683;SDS011;36654;45.042;38.994;2023-02-15T07:53:30;30.42;;;15.40;;
50683;SDS011;36654;45.042;38.994;2023-02-15T07:56:03;28.42;;;15.13;;
50683;SDS011;36654;45.042;38.994;2023-02-15T07:58:31;33.88;;;16.85;;
50683;SDS011;36654;45.042;38.994;2023-02-15T08:01:16;33.40;;;16.58;;
50683;SDS011;36654;45.042;38.994;2023-02-15T08:03:46;33.42;;;15.80;;
50683;SDS011;36654;45.042;38.994;2023-02-15T08:06:12;34.35;;;18.80;;
50683;SDS011;36654;45.042;38.994;2023-02-15T08:08:38;38.50;;;19.13;;
50683;SDS011;36654;45.042;38.994;2023-02-15T08:11:06;38.15;;;19.65;;
50683;SDS011;36654;45.042;38.994;2023-02-15T08:19:15;38.33;;;19.60;;
50683;SDS011;36654;45.042;38.994;2023-02-15T08:21:50;45.08;;;17.23;;
50683;SDS011;36654;45.042;38.994;2023-02-15T08:24:24;32.20;;;16.55;;
50683;SDS011;36654;45.042;38.994;2023-02-15T08:26:54;43.35;;;17.85;;
50683;SDS011;36654;45.042;38.994;2023-02-15T08:29:21;29.05;;;14.88;;
50683;SDS011;36654;45.042;38.994;2023-02-15T08:31:48;26.13;;;13.18;;
50683;SDS011;36654;45.042;38.994;2023-02-15T08:34:18;27.77;;;14.82;;
50683;SDS011;36654;45.042;38.994;2023-02-15T08:36:45;26.05;;;12.38;;
50683;SDS011;36654;45.042;38.994;2023-02-15T08:39:11;27.63;;;12.85;;
50683;SDS011;36654;45.042;38.994;2023-02-15T08:41:38;31.45;;;14.60;;
50683;SDS011;36654;45.042;38.994;2023-02-15T08:44:05;32.95;;;15.27;;
50683;SDS011;36654;45.042;38.994;2023-02-15T08:46:36;30.08;;;14.48;;
50683;SDS011;36654;45.042;38.994;2023-02-15T08:49:03;29.80;;;15.73;;
50683;SDS011;36654;45.042;38.994;2023-02-15T08:51:30;26.85;;;14.63;;
50683;SDS011;36654;45.042;38.994;2023-02-15T08:53:59;26.70;;;14.05;;
50683;SDS011;36654;45.042;38.994;2023-02-15T08:56:27;26.90;;;13.52;;
50683;SDS011;36654;45.042;38.994;2023-02-15T08:58:54;33.97;;;16.02;;
50683;SDS011;36654;45.042;38.994;2023-02-15T09:01:25;26.10;;;14.00;;
50683;SDS011;36654;45.042;38.994;2023-02-15T09:03:55;27.95;;;14.45;;
50683;SDS011;36654;45.042;38.994;2023-02-15T09:06:22;29.40;;;16.10;;
50683;SDS011;36654;45.042;38.994;2023-02-15T09:08:48;41.03;;;16.55;;
50683;SDS011;36654;45.042;38.994;2023-02-15T09:11:16;27.60;;;12.98;;
50683;SDS011;36654;45.042;38.994;2023-02-15T09:14:32;20.05;;;10.98;;
50683;SDS011;36654;45.042;38.994;2023-02-15T09:16:41;16.52;;;10.27;;
50683;SDS011;36654;45.042;38.994;2023-02-15T09:19:11;19.38;;;11.13;;
50683;SDS011;36654;45.042;38.994;2023-02-15T09:21:37;21.65;;;11.15;;
50683;SDS011;36654;45.042;38.994;2023-02-15T09:24:04;22.38;;;11.50;;
50683;SDS011;36654;45.042;38.994;2023-02-15T09:26:35;21.63;;;11.43;;
50683;SDS011;36654;45.042;38.994;2023-02-15T09:29:05;23.60;;;12.13;;
50683;SDS011;36654;45.042;38.994;2023-02-15T09:31:32;22.88;;;12.45;;
50683;SDS011;36654;45.042;38.994;2023-02-15T09:34:02;23.50;;;11.57;;
50683;SDS011;36654;45.042;38.994;2023-02-15T09:36:28;19.48;;;11.23;;
50683;SDS011;36654;45.042;38.994;2023-02-15T09:39:07;19.08;;;11.02;;
50683;SDS011;36654;45.042;38.994;2023-02-15T09:52:34;16.27;;;8.55;;
50683;SDS011;36654;45.042;38.994;2023-02-15T09:58:10;19.65;;;10.40;;
50683;SDS011;36654;45.042;38.994;2023-02-15T10:03:33;16.42;;;9.55;;
50683;SDS011;36654;45.042;38.994;2023-02-15T10:06:18;16.77;;;9.90;;
50683;SDS011;36654;45.042;38.994;2023-02-15T10:09:12;14.23;;;8.02;;
50683;SDS011;36654;45.042;38.994;2023-02-15T10:14:36;15.70;;;9.10;;
50683;SDS011;36654;45.042;38.994;2023-02-15T10:17:21;17.48;;;9.48;;
50683;SDS011;36654;45.042;38.994;2023-02-15T10:25:19;21.90;;;8.73;;
50683;SDS011;36654;45.042;38.994;2023-02-15T10:28:04;20.77;;;8.48;;
50683;SDS011;36654;45.042;38.994;2023-02-15T10:30:51;13.98;;;8.48;;
50683;SDS011;36654;45.042;38.994;2023-02-15T10:33:37;14.13;;;7.65;;
50683;SDS011;36654;45.042;38.994;2023-02-15T10:36:12;14.35;;;8.10;;
50683;SDS011;36654;45.042;38.994;2023-02-15T10:38:52;15.05;;;8.13;;
50683;SDS011;36654;45.042;38.994;2023-02-15T10:44:41;31.25;;;13.32;;
50683;SDS011;36654;45.042;38.994;2023-02-15T10:47:38;11.70;;;6.63;;
50683;SDS011;36654;45.042;38.994;2023-02-15T10:50:23;13.07;;;6.82;;
50683;SDS011;36654;45.042;38.994;2023-02-15T11:01:29;12.75;;;6.00;;
50683;SDS011;36654;45.042;38.994;2023-02-15T11:06:50;13.95;;;7.15;;
50683;SDS011;36654;45.042;38.994;2023-02-15T11:09:21;15.70;;;7.38;;
50683;SDS011;36654;45.042;38.994;2023-02-15T11:11:50;12.82;;;8.60;;
50683;SDS011;36654;45.042;38.994;2023-02-15T11:16:49;18.42;;;8.05;;
50683;SDS011;36654;45.042;38.994;2023-02-15T11:21:57;11.35;;;6.95;;
50683;SDS011;36654;45.042;38.994;2023-02-15T11:24:27;20.33;;;9.00;;
50683;SDS011;36654;45.042;38.994;2023-02-15T11:27:00;15.10;;;7.20;;
50683;SDS011;36654;45.042;38.994;2023-02-15T11:29:43;10.55;;;6.72;;
50683;SDS011;36654;45.042;38.994;2023-02-15T11:38:14;11.68;;;6.97;;
50683;SDS011;36654;45.042;38.994;2023-02-15T11:40:48;13.68;;;6.40;;
50683;SDS011;36654;45.042;38.994;2023-02-15T11:45:57;10.43;;;5.63;;
50683;SDS011;36654;45.042;38.994;2023-02-15T11:48:22;12.57;;;6.43;;
50683;SDS011;36654;45.042;38.994;2023-02-15T11:50:48;10.82;;;5.30;;
50683;SDS011;36654;45.042;38.994;2023-02-15T11:53:18;10.45;;;5.35;;
50683;SDS011;36654;45.042;38.994;2023-02-15T11:55:47;13.07;;;6.40;;
50683;SDS011;36654;45.042;38.994;2023-02-15T12:00:42;12.63;;;6.00;;
50683;SDS011;36654;45.042;38.994;2023-02-15T12:06:21;8.63;;;5.53;;
50683;SDS011;36654;45.042;38.994;2023-02-15T12:08:52;5.55;;;3.25;;
50683;SDS011;36654;45.042;38.994;2023-02-15T12:11:25;7.70;;;3.83;;
50683;SDS011;36654;45.042;38.994;2023-02-15T12:14:00;7.05;;;3.67;;
50683;SDS011;36654;45.042;38.994;2023-02-15T12:16:32;7.18;;;4.35;;
50683;SDS011;36654;45.042;38.994;2023-02-15T12:19:10;5.38;;;3.85;;
50683;SDS011;36654;45.042;38.994;2023-02-15T12:21:50;9.60;;;5.32;;
50683;SDS011;36654;45.042;38.994;2023-02-15T12:24:20;11.43;;;6.25;;
50683;SDS011;36654;45.042;38.994;2023-02-15T12:27:02;8.13;;;5.65;;
50683;SDS011;36654;45.042;38.994;2023-02-15T12:29:40;13.35;;;6.25;;
50683;SDS011;36654;45.042;38.994;2023-02-15T12:32:15;13.35;;;7.22;;
50683;SDS011;36654;45.042;38.994;2023-02-15T12:34:50;15.00;;;7.53;;
50683;SDS011;36654;45.042;38.994;2023-02-15T12:37:21;12.85;;;6.82;;
50683;SDS011;36654;45.042;38.994;2023-02-15T12:39:58;15.82;;;7.13;;
50683;SDS011;36654;45.042;38.994;2023-02-15T12:42:25;20.23;;;9.30;;
50683;SDS011;36654;45.042;38.994;2023-02-15T12:47:24;17.00;;;8.57;;
50683;SDS011;36654;45.042;38.994;2023-02-15T12:52:47;12.88;;;7.35;;
50683;SDS011;36654;45.042;38.994;2023-02-15T12:55:19;14.20;;;8.02;;
50683;SDS011;36654;45.042;38.994;2023-02-15T13:00:34;19.35;;;8.82;;
50683;SDS011;36654;45.042;38.994;2023-02-15T13:03:00;15.25;;;7.90;;
50683;SDS011;36654;45.042;38.994;2023-02-15T13:08:01;13.52;;;7.75;;
50683;SDS011;36654;45.042;38.994;2023-02-15T13:10:40;14.90;;;8.10;;
50683;SDS011;36654;45.042;38.994;2023-02-15T13:13:19;15.35;;;8.55;;
50683;SDS011;36654;45.042;38.994;2023-02-15T13:15:48;18.38;;;8.70;;
50683;SDS011;36654;45.042;38.994;2023-02-15T13:18:39;16.17;;;9.68;;
50683;SDS011;36654;45.042;38.994;2023-02-15T13:21:20;22.15;;;10.30;;
50683;SDS011;36654;45.042;38.994;2023-02-15T13:23:57;18.70;;;11.02;;
50683;SDS011;36654;45.042;38.994;2023-02-15T13:26:26;17.90;;;9.55;;
50683;SDS011;36654;45.042;38.994;2023-02-15T13:29:10;16.55;;;8.90;;
50683;SDS011;36654;45.042;38.994;2023-02-15T13:31:43;19.52;;;8.75;;
50683;SDS011;36654;45.042;38.994;2023-02-15T13:34:17;16.58;;;9.20;;
50683;SDS011;36654;45.042;38.994;2023-02-15T13:37:36;15.82;;;8.88;;
50683;SDS011;36654;45.042;38.994;2023-02-15T14:01:44;15.10;;;7.13;;
50683;SDS011;36654;45.042;38.994;2023-02-15T14:07:17;11.75;;;7.18;;
50683;SDS011;36654;45.042;38.994;2023-02-15T14:32:53;18.70;;;8.25;;
50683;SDS011;36654;45.042;38.994;2023-02-15T14:35:14;13.38;;;7.10;;
50683;SDS011;36654;45.042;38.994;2023-02-15T14:56:45;16.40;;;7.50;;
50683;SDS011;36654;45.042;38.994;2023-02-15T15:01:36;15.43;;;8.05;;
50683;SDS011;36654;45.042;38.994;2023-02-15T15:04:13;16.00;;;8.15;;
50683;SDS011;36654;45.042;38.994;2023-02-15T15:06:57;14.25;;;7.60;;
50683;SDS011;36654;45.042;38.994;2023-02-15T15:09:29;15.35;;;7.40;;
50683;SDS011;36654;45.042;38.994;2023-02-15T15:14:46;17.05;;;9.13;;
50683;SDS011;36654;45.042;38.994;2023-02-15T15:17:13;16.15;;;9.10;;
50683;SDS011;36654;45.042;38.994;2023-02-15T15:19:58;16.85;;;8.18;;
50683;SDS011;36654;45.042;38.994;2023-02-15T15:22:30;14.95;;;8.85;;
50683;SDS011;36654;45.042;38.994;2023-02-15T15:24:58;14.40;;;7.70;;
50683;SDS011;36654;45.042;38.994;2023-02-15T15:49:10;14.23;;;8.35;;
50683;SDS011;36654;45.042;38.994;2023-02-15T15:51:42;14.57;;;7.80;;
50683;SDS011;36654;45.042;38.994;2023-02-15T15:54:28;17.08;;;7.18;;
50683;SDS011;36654;45.042;38.994;2023-02-15T15:56:58;13.30;;;7.07;;
50683;SDS011;36654;45.042;38.994;2023-02-15T15:59:31;14.80;;;7.47;;
50683;SDS011;36654;45.042;38.994;2023-02-15T16:02:06;13.80;;;7.53;;
50683;SDS011;36654;45.042;38.994;2023-02-15T16:04:36;15.77;;;7.40;;
50683;SDS011;36654;45.042;38.994;2023-02-15T16:12:26;17.83;;;7.82;;
50683;SDS011;36654;45.042;38.994;2023-02-15T16:14:54;15.48;;;8.15;;
50683;SDS011;36654;45.042;38.994;2023-02-15T16:17:25;16.70;;;7.47;;
50683;SDS011;36654;45.042;38.994;2023-02-15T16:23:03;12.15;;;7.03;;
50683;SDS011;36654;45.042;38.994;2023-02-15T16:28:49;11.48;;;7.18;;
50683;SDS011;36654;45.042;38.994;2023-02-15T16:31:17;13.95;;;7.90;;
50683;SDS011;36654;45.042;38.994;2023-02-15T16:33:44;14.30;;;7.47;;
50683;SDS011;36654;45.042;38.994;2023-02-15T16:36:11;13.98;;;7.25;;
50683;SDS011;36654;45.042;38.994;2023-02-15T16:41:14;15.50;;;8.73;;
50683;SDS011;36654;45.042;38.994;2023-02-15T16:46:11;13.40;;;7.25;;
50683;SDS011;36654;45.042;38.994;2023-02-15T16:48:42;14.90;;;7.38;;
50683;SDS011;36654;45.042;38.994;2023-02-15T16:51:17;14.48;;;7.07;;
50683;SDS011;36654;45.042;38.994;2023-02-15T16:53:46;12.82;;;7.63;;
50683;SDS011;36654;45.042;38.994;2023-02-15T16:56:13;16.92;;;8.13;;
50683;SDS011;36654;45.042;38.994;2023-02-15T16:58:42;15.25;;;7.45;;
50683;SDS011;36654;45.042;38.994;2023-02-15T17:01:10;14.98;;;8.38;;
50683;SDS011;36654;45.042;38.994;2023-02-15T17:03:39;14.05;;;7.43;;
50683;SDS011;36654;45.042;38.994;2023-02-15T17:06:18;11.80;;;6.53;;
50683;SDS011;36654;45.042;38.994;2023-02-15T17:08:45;13.88;;;7.75;;
50683;SDS011;36654;45.042;38.994;2023-02-15T17:11:16;13.27;;;8.05;;
50683;SDS011;36654;45.042;38.994;2023-02-15T17:16:31;14.98;;;8.73;;
50683;SDS011;36654;45.042;38.994;2023-02-15T17:19:07;12.45;;;7.32;;
50683;SDS011;36654;45.042;38.994;2023-02-15T17:21:41;13.70;;;7.93;;
50683;SDS011;36654;45.042;38.994;2023-02-15T17:24:17;14.98;;;7.85;;
50683;SDS011;36654;45.042;38.994;2023-02-15T17:27:26;11.38;;;6.93;;
50683;SDS011;36654;45.042;38.994;2023-02-15T17:29:52;12.45;;;6.05;;
50683;SDS011;36654;45.042;38.994;2023-02-15T17:32:26;10.88;;;6.55;;
50683;SDS011;36654;45.042;38.994;2023-02-15T17:37:54;11.45;;;6.93;;
50683;SDS011;36654;45.042;38.994;2023-02-15T17:40:31;12.48;;;7.50;;
50683;SDS011;36654;45.042;38.994;2023-02-15T17:42:58;14.75;;;7.43;;
50683;SDS011;36654;45.042;38.994;2023-02-15T17:45:25;9.40;;;6.90;;
50683;SDS011;36654;45.042;38.994;2023-02-15T17:47:57;13.13;;;6.70;;
50683;SDS011;36654;45.042;38.994;2023-02-15T17:50:25;13.68;;;7.97;;
50683;SDS011;36654;45.042;38.994;2023-02-15T17:52:52;15.55;;;8.90;;
50683;SDS011;36654;45.042;38.994;2023-02-15T17:55:22;13.27;;;8.23;;
50683;SDS011;36654;45.042;38.994;2023-02-15T18:00:35;17.33;;;9.98;;
50683;SDS011;36654;45.042;38.994;2023-02-15T18:03:23;16.33;;;9.30;;
50683;SDS011;36654;45.042;38.994;2023-02-15T18:06:09;14.77;;;8.68;;
50683;SDS011;36654;45.042;38.994;2023-02-15T18:08:56;13.15;;;8.70;;
50683;SDS011;36654;45.042;38.994;2023-02-15T18:11:40;13.50;;;8.32;;
50683;SDS011;36654;45.042;38.994;2023-02-15T18:14:09;19.20;;;9.88;;
50683;SDS011;36654;45.042;38.994;2023-02-15T18:16:36;15.18;;;9.25;;
50683;SDS011;36654;45.042;38.994;2023-02-15T18:19:20;23.20;;;13.60;;